Time;durP1;ratioP1;P1;durP2;ratioP2;P2;SDS_P1;SDS_P2;PMS_P1;PMS_P2;Temp;Humidity;BMP_temperature;BMP_pressure;BME280_temperature;BME280_humidity;BME280_pressure;Samples;Min_cycle;Max_cycle;Signal;HPM_P1;HPM_P2
2022/06/08 00:00:45;;;;;;;7.75;2.42;;;;;;;15.72;100.00;101019.03;5035814;28;20494;-91
2022/06/08 00:03:17;;;;;;;5.22;2.03;;;;;;;15.74;100.00;101017.09;5034824;28;20017;-88
2022/06/08 00:05:43;;;;;;;7.60;2.30;;;;;;;15.77;100.00;101019.59;5036105;28;20433;-90
2022/06/08 00:08:09;;;;;;;5.93;2.67;;;;;;;15.77;100.00;101013.38;5034366;28;20028;-91
2022/06/08 00:10:35;;;;;;;7.45;2.40;;;;;;;15.76;100.00;101009.84;5018114;28;20532;-89
2022/06/08 00:13:00;;;;;;;11.07;2.95;;;;;;;15.75;100.00;101008.13;5018163;28;20068;-90
2022/06/08 00:15:26;;;;;;;7.57;3.30;;;;;;;15.75;100.00;101002.78;5018199;28;20512;-91
2022/06/08 00:17:52;;;;;;;9.02;3.15;;;;;;;15.73;100.00;101007.38;5019314;28;20175;-91
2022/06/08 00:20:17;;;;;;;6.88;3.10;;;;;;;15.68;100.00;100998.81;5036454;28;20029;-91
2022/06/08 00:22:43;;;;;;;9.15;3.40;;;;;;;15.68;100.00;100993.47;5022479;28;20370;-88
2022/06/08 00:25:10;;;;;;;8.35;3.20;;;;;;;15.66;100.00;100995.38;5039542;28;20033;-89
2022/06/08 00:27:36;;;;;;;7.45;3.00;;;;;;;15.64;100.00;100983.94;5039679;28;20028;-91
2022/06/08 00:30:04;;;;;;;10.23;3.35;;;;;;;15.62;100.00;100994.72;5039918;28;20033;-91
2022/06/08 00:32:29;;;;;;;10.20;3.83;;;;;;;15.59;100.00;100983.38;5057045;28;20075;-91
2022/06/08 00:34:55;;;;;;;11.07;3.97;;;;;;;15.53;100.00;100982.81;5058560;28;20024;-90
2022/06/08 00:37:21;;;;;;;11.38;4.57;;;;;;;15.50;100.00;100977.69;5027666;28;20076;-90
2022/06/08 00:39:46;;;;;;;10.05;5.20;;;;;;;15.49;100.00;100969.78;5044992;28;20015;-89
2022/06/08 00:42:14;;;;;;;11.90;6.03;;;;;;;15.43;100.00;100968.34;5046362;28;20039;-90
2022/06/08 00:44:48;;;;;;;14.95;6.93;;;;;;;15.36;100.00;100964.34;5037911;28;20033;-90
2022/06/08 00:47:20;;;;;;;12.80;8.07;;;;;;;15.32;100.00;100962.81;5024687;28;20040;-90
2022/06/08 00:49:56;;;;;;;13.40;8.57;;;;;;;15.27;100.00;100957.78;5023343;28;20033;-91
2022/06/08 00:52:22;;;;;;;15.30;7.30;;;;;;;15.26;100.00;100950.72;5055021;28;20025;-90
2022/06/08 00:54:52;;;;;;;14.50;8.90;;;;;;;15.22;100.00;100955.41;5020348;28;20169;-91
2022/06/08 00:57:23;;;;;;;14.68;9.23;;;;;;;15.21;100.00;100948.34;5054436;28;20542;-90
2022/06/08 00:59:52;;;;;;;12.80;7.88;;;;;;;15.20;100.00;100940.44;5036814;28;20051;-90
2022/06/08 01:02:18;;;;;;;16.05;9.50;;;;;;;15.21;100.00;100942.16;5035063;28;20492;-89
2022/06/08 01:04:43;;;;;;;18.02;9.18;;;;;;;15.22;100.00;100939.38;5000631;28;20032;-90
2022/06/08 01:07:17;;;;;;;17.63;10.32;;;;;;;15.26;100.00;100940.06;5033882;28;20029;-91
2022/06/08 01:09:43;;;;;;;18.38;10.77;;;;;;;15.28;100.00;100926.63;5023196;28;20116;-91
2022/06/08 01:12:18;;;;;;;17.58;10.43;;;;;;;15.29;100.00;100933.66;5032575;28;20115;-89
2022/06/08 01:14:44;;;;;;;17.13;10.50;;;;;;;15.30;100.00;100938.91;5036718;28;20089;-89
2022/06/08 01:17:13;;;;;;;17.70;11.05;;;;;;;15.30;100.00;100930.06;5019220;28;20032;-89
2022/06/08 01:19:44;;;;;;;15.35;10.00;;;;;;;15.31;100.00;100924.63;5036477;28;20025;-89
2022/06/08 01:22:12;;;;;;;16.98;10.45;;;;;;;15.32;100.00;100922.78;5053583;28;20086;-88
2022/06/08 01:24:39;;;;;;;16.85;10.10;;;;;;;15.30;100.00;100908.72;5055902;28;20013;-89
2022/06/08 01:27:19;;;;;;;17.48;10.70;;;;;;;15.27;100.00;100917.75;5021177;28;20041;-89
2022/06/08 01:30:13;;;;;;;16.63;10.48;;;;;;;15.21;100.00;100913.66;5036286;28;20052;-90
2022/06/08 01:32:58;;;;;;;16.88;9.98;;;;;;;15.15;100.00;100906.03;5035741;28;20025;-89
2022/06/08 01:35:42;;;;;;;17.08;10.05;;;;;;;15.10;100.00;100905.47;5035965;28;20040;-89
2022/06/08 01:38:38;;;;;;;16.52;10.20;;;;;;;15.03;100.00;100904.16;5036003;28;20036;-89
2022/06/08 01:41:31;;;;;;;16.80;10.07;;;;;;;14.97;100.00;100897.38;5053829;28;20025;-88
2022/06/08 01:44:23;;;;;;;18.55;9.63;;;;;;;14.88;100.00;100890.81;5035461;28;20033;-89
2022/06/08 01:47:10;;;;;;;15.95;8.88;;;;;;;14.83;100.00;100890.25;5053325;28;20047;-90
2022/06/08 01:49:51;;;;;;;12.57;8.15;;;;;;;14.81;100.00;100880.63;5015983;28;20068;-90
2022/06/08 01:52:38;;;;;;;15.55;7.53;;;;;;;14.81;100.00;100877.97;5015818;28;20384;-90
2022/06/08 01:55:31;;;;;;;11.77;7.10;;;;;;;14.78;100.00;100878.16;5047386;28;20032;-90
2022/06/08 01:58:14;;;;;;;12.93;6.88;;;;;;;14.77;100.00;100865.78;5035110;28;20127;-83
2022/06/08 02:00:48;;;;;;;11.38;6.70;;;;;;;14.74;100.00;100857.03;5031601;28;20041;-83
2022/06/08 02:03:32;;;;;;;12.10;7.18;;;;;;;14.72;100.00;100858.94;5034202;28;20029;-83
2022/06/08 02:06:06;;;;;;;12.32;7.13;;;;;;;14.70;100.00;100867.97;5042131;28;20472;-83
2022/06/08 02:08:59;;;;;;;12.75;7.13;;;;;;;14.72;100.00;100860.75;5035229;28;20048;-83
2022/06/08 02:11:30;;;;;;;11.45;7.10;;;;;;;14.69;100.00;100855.59;5035693;28;20461;-84
2022/06/08 02:14:02;;;;;;;10.90;6.40;;;;;;;14.69;100.00;100847.59;5034989;28;20040;-84
2022/06/08 02:16:33;;;;;;;;;;;;;;;14.71;100.00;100843.03;5053734;28;20177;-84
2022/06/08 02:19:06;;;;;;;11.98;6.70;;;;;;;14.70;100.00;100847.50;5035214;28;20381;-82
2022/06/08 02:21:55;;;;;;;11.00;6.05;;;;;;;14.68;100.00;100844.09;5034853;28;20056;-82
2022/06/08 02:24:37;;;;;;;10.70;6.00;;;;;;;14.69;100.00;100843.16;5052617;28;20072;-82
2022/06/08 02:27:30;;;;;;;10.73;6.10;;;;;;;14.69;100.00;100842.28;5035057;28;20113;-82
2022/06/08 02:30:08;;;;;;;9.27;5.82;;;;;;;14.68;100.00;100835.22;5052734;28;20056;-82
2022/06/08 02:35:34;;;;;;;8.77;5.30;;;;;;;14.69;100.00;100834.28;5052151;28;20452;-82
2022/06/08 02:38:08;;;;;;;8.77;5.60;;;;;;;14.71;100.00;100819.91;5035564;28;20032;-82
2022/06/08 02:40:37;;;;;;;9.55;4.70;;;;;;;14.72;100.00;100824.28;5054136;28;20029;-90
2022/06/08 02:43:48;;;;;;;7.63;4.85;;;;;;;14.74;100.00;100822.41;5036969;28;20123;-84
2022/06/08 02:46:20;;;;;;;10.32;4.57;;;;;;;14.79;100.00;100821.25;5038804;28;20116;-90
2022/06/08 02:48:49;;;;;;;9.95;4.43;;;;;;;14.80;100.00;100822.97;5054389;28;20025;-83
2022/06/08 02:51:14;;;;;;;8.70;4.60;;;;;;;14.77;100.00;100818.69;5034511;28;20037;-83
2022/06/08 02:54:17;;;;;;;8.52;4.55;;;;;;;14.81;100.00;100816.66;5035924;28;20025;-86
2022/06/08 02:56:50;;;;;;;6.35;4.47;;;;;;;14.77;100.00;100810.69;5038296;28;20037;-92
2022/06/08 02:59:37;;;;;;;9.02;4.90;;;;;;;14.77;100.00;100812.47;5038454;28;20546;-91
2022/06/08 03:02:16;;;;;;;7.47;4.22;;;;;;;14.78;100.00;100807.03;5048601;28;20036;-92
2022/06/08 03:07:23;;;;;;;8.63;4.20;;;;;;;14.87;100.00;100801.16;5035778;22;20053;-62
2022/06/08 03:09:50;;;;;;;11.07;4.80;;;;;;;14.94;100.00;100796.28;5030511;28;20515;-61
2022/06/08 03:12:26;;;;;;;6.80;3.95;;;;;;;14.94;100.00;100803.44;5031377;28;20030;-61
2022/06/08 03:14:52;;;;;;;6.82;3.85;;;;;;;14.97;100.00;100801.41;5031771;28;20021;-61
2022/06/08 03:17:23;;;;;;;6.53;4.10;;;;;;;15.03;100.00;100797.50;5030946;28;20034;-62
2022/06/08 03:19:49;;;;;;;9.25;3.92;;;;;;;15.01;100.00;100794.06;5031507;28;20036;-62
2022/06/08 03:22:16;;;;;;;7.75;3.95;;;;;;;15.05;100.00;100792.91;5030157;28;20033;-62
2022/06/08 03:24:41;;;;;;;7.55;3.50;;;;;;;15.06;100.00;100791.94;5031637;28;20025;-61
2022/06/08 03:27:08;;;;;;;7.10;3.63;;;;;;;15.08;100.00;100792.72;5031501;28;20036;-61
2022/06/08 03:29:34;;;;;;;7.85;3.72;;;;;;;15.11;100.00;100795.19;5030778;28;20080;-61
2022/06/08 03:31:59;;;;;;;7.20;3.50;;;;;;;15.11;100.00;100789.84;5029719;28;20071;-61
2022/06/08 03:34:25;;;;;;;7.03;3.30;;;;;;;15.14;100.00;100783.44;5030201;28;20456;-62
2022/06/08 03:36:51;;;;;;;7.88;3.70;;;;;;;15.15;100.00;100787.84;5030231;28;20423;-61
2022/06/08 03:39:17;;;;;;;5.97;3.55;;;;;;;15.17;100.00;100785.94;5030468;28;20550;-61
2022/06/08 03:41:46;;;;;;;6.30;3.50;;;;;;;15.18;100.00;100785.84;5029788;28;20500;-61
2022/06/08 03:44:12;;;;;;;9.40;3.50;;;;;;;15.22;100.00;100781.16;5030140;28;20029;-61
2022/06/08 03:46:44;;;;;;;9.05;4.30;;;;;;;15.22;100.00;100787.34;5033282;28;20025;-61
2022/06/08 03:49:11;;;;;;;6.85;3.30;;;;;;;15.20;100.00;100781.22;5034517;28;20021;-61
2022/06/08 03:51:39;;;;;;;7.70;3.72;;;;;;;15.19;100.00;100787.53;5034613;28;20111;-61
2022/06/08 03:54:24;;;;;;;7.65;3.70;;;;;;;15.20;100.00;100778.56;5033874;28;20037;-61
2022/06/08 03:56:54;;;;;;;7.25;3.28;;;;;;;15.21;100.00;100768.78;5035121;28;20030;-61
2022/06/08 03:59:20;;;;;;;6.65;3.50;;;;;;;15.20;100.00;100788.38;5034347;28;20112;-61
2022/06/08 04:01:45;;;;;;;7.30;3.70;;;;;;;15.17;100.00;100785.94;5016553;28;20910;-61
2022/06/08 04:04:11;;;;;;;7.45;3.58;;;;;;;15.19;100.00;100776.88;5034774;28;20499;-61
2022/06/08 04:06:37;;;;;;;8.98;3.33;;;;;;;15.22;100.00;100779.34;5034602;28;20053;-61
2022/06/08 04:09:03;;;;;;;6.93;3.38;;;;;;;15.26;100.00;100777.31;5034674;28;20040;-62
2022/06/08 04:11:29;;;;;;;7.15;3.58;;;;;;;15.28;100.00;100778.09;5032226;28;20091;-60
2022/06/08 04:13:54;;;;;;;7.93;2.90;;;;;;;15.33;100.00;100772.44;5033530;28;20045;-61
2022/06/08 04:16:20;;;;;;;11.60;3.10;;;;;;;15.35;100.00;100770.53;5034476;28;20025;-62
2022/06/08 04:18:45;;;;;;;5.88;3.00;;;;;;;15.37;100.00;100772.13;5016888;28;20068;-62
2022/06/08 04:21:13;;;;;;;7.47;3.25;;;;;;;15.43;100.00;100778.03;5033674;28;20025;-62
2022/06/08 04:23:40;;;;;;;4.25;2.80;;;;;;;15.46;100.00;100773.34;5034263;28;20021;-61
2022/06/08 04:26:06;;;;;;;8.13;2.80;;;;;;;15.51;100.00;100768.56;5034383;28;20370;-61
2022/06/08 04:28:32;;;;;;;8.68;2.97;;;;;;;15.58;100.00;100771.66;5034337;28;20032;-60
2022/06/08 04:30:58;;;;;;;5.22;2.85;;;;;;;15.64;100.00;100775.72;5033453;28;20037;-62
2022/06/08 04:33:24;;;;;;;8.18;2.85;;;;;;;15.64;100.00;100767.72;5032955;28;20034;-60
2022/06/08 04:35:50;;;;;;;7.25;3.17;;;;;;;15.65;100.00;100772.97;5031540;28;20025;-60
2022/06/08 04:38:16;;;;;;;6.32;3.38;;;;;;;15.66;100.00;100772.00;5032907;28;20509;-60
2022/06/08 04:40:42;;;;;;;6.07;3.40;;;;;;;15.66;100.00;100773.81;5032383;28;20049;-61
2022/06/08 04:43:08;;;;;;;7.85;3.65;;;;;;;15.66;100.00;100766.66;5031913;28;20087;-61
2022/06/08 04:45:35;;;;;;;7.15;3.20;;;;;;;15.68;100.00;100762.06;5033800;28;20028;-61
2022/06/08 04:48:02;;;;;;;6.68;3.35;;;;;;;15.68;100.00;100764.75;5032541;28;20022;-61
2022/06/08 04:50:27;;;;;;;8.25;3.65;;;;;;;15.69;100.00;100757.56;5032200;28;20040;-61
2022/06/08 04:52:53;;;;;;;5.07;3.20;;;;;;;15.70;100.00;100757.50;5033184;28;20033;-62
2022/06/08 04:55:18;;;;;;;7.72;4.28;;;;;;;15.73;100.00;100756.44;5032904;28;20124;-62
2022/06/08 04:57:43;;;;;;;7.05;3.47;;;;;;;15.75;100.00;100754.50;5032027;28;20028;-61
2022/06/08 05:00:16;;;;;;;7.55;3.30;;;;;;;15.77;100.00;100754.38;5033498;28;20036;-62
2022/06/08 05:02:48;;;;;;;6.68;3.50;;;;;;;15.75;100.00;100748.31;5032595;28;20087;-61
2022/06/08 05:05:35;;;;;;;6.20;3.53;;;;;;;15.78;100.00;100748.97;5013594;28;20026;-61
2022/06/08 05:08:02;;;;;;;5.13;3.50;;;;;;;15.82;100.00;100753.16;5033452;28;20029;-62
2022/06/08 05:10:30;;;;;;;4.82;3.20;;;;;;;15.88;100.00;100744.75;5032054;28;20033;-61
2022/06/08 05:12:56;;;;;;;9.20;4.15;;;;;;;15.98;100.00;100746.75;5032897;28;20025;-61
2022/06/08 05:15:28;;;;;;;7.35;3.83;;;;;;;16.04;100.00;100739.19;5033083;28;20393;-60
2022/06/08 05:17:54;;;;;;;10.07;4.07;;;;;;;16.09;100.00;100738.00;5032706;28;20025;-61
2022/06/08 05:20:21;;;;;;;9.88;4.00;;;;;;;16.09;100.00;100735.31;5030094;28;20029;-61
2022/06/08 05:22:47;;;;;;;7.25;4.18;;;;;;;16.08;100.00;100730.97;5030094;28;20037;-62
2022/06/08 05:25:23;;;;;;;7.68;4.22;;;;;;;16.07;100.00;100730.09;5032596;28;20021;-62
2022/06/08 05:27:49;;;;;;;9.60;4.45;;;;;;;16.08;100.00;100717.59;5033109;28;20029;-62
2022/06/08 05:30:14;;;;;;;12.95;5.15;;;;;;;16.05;100.00;100716.84;5030504;28;20025;-62
2022/06/08 05:32:41;;;;;;;7.30;4.80;;;;;;;16.08;100.00;100728.28;5032677;28;20061;-62
2022/06/08 05:35:07;;;;;;;9.32;5.03;;;;;;;16.08;100.00;100721.13;5014148;28;20021;-61
2022/06/08 05:37:33;;;;;;;8.73;4.88;;;;;;;16.07;100.00;100722.06;5025160;28;20523;-62
2022/06/08 05:39:58;;;;;;;7.32;4.20;;;;;;;16.09;100.00;100714.81;5027752;28;20033;-61
2022/06/08 05:42:24;;;;;;;7.90;4.30;;;;;;;16.13;100.00;100715.47;5032382;28;20038;-61
2022/06/08 05:44:49;;;;;;;11.98;4.53;;;;;;;16.22;100.00;100717.47;5010650;28;20058;-61
2022/06/08 05:47:16;;;;;;;10.98;4.30;;;;;;;16.31;100.00;100710.63;5029322;28;20235;-60
2022/06/08 05:49:42;;;;;;;6.40;4.15;;;;;;;16.36;100.00;100709.34;5031833;28;20430;-61
2022/06/08 05:52:08;;;;;;;6.47;4.10;;;;;;;16.39;100.00;100702.91;5032470;28;20488;-61
2022/06/08 05:54:34;;;;;;;7.20;4.05;;;;;;;16.38;100.00;100699.41;5031937;28;20121;-61
2022/06/08 05:57:00;;;;;;;6.72;3.97;;;;;;;16.44;100.00;100706.13;5032160;28;20041;-61
2022/06/08 05:59:26;;;;;;;8.82;4.45;;;;;;;16.53;100.00;100700.13;5032154;28;20017;-62
2022/06/08 06:01:52;;;;;;;8.63;4.30;;;;;;;16.59;100.00;100695.31;5031038;28;20028;-61
2022/06/08 06:04:17;;;;;;;7.50;4.22;;;;;;;16.64;100.00;100685.13;5030942;28;20048;-63
2022/06/08 06:06:46;;;;;;;7.45;3.97;;;;;;;16.69;100.00;100678.47;5023001;28;20137;-61
2022/06/08 06:09:13;;;;;;;9.82;3.80;;;;;;;16.83;100.00;100677.44;5029998;28;20373;-60
2022/06/08 06:11:39;;;;;;;8.73;4.15;;;;;;;17.05;100.00;100670.53;5030031;28;20026;-61
2022/06/08 06:14:05;;;;;;;6.55;3.40;;;;;;;17.25;100.00;100670.84;5030566;28;20103;-62
2022/06/08 06:16:31;;;;;;;5.88;3.15;;;;;;;17.36;100.00;100673.56;5021235;28;20416;-62
2022/06/08 06:18:57;;;;;;;6.35;3.17;;;;;;;17.49;100.00;100671.66;5018112;28;20088;-63
2022/06/08 06:21:26;;;;;;;7.80;3.50;;;;;;;17.60;99.52;100661.94;5024574;28;20056;-61
2022/06/08 06:23:59;;;;;;;5.75;3.53;;;;;;;17.81;98.58;100662.97;5030674;28;20481;-61
2022/06/08 06:26:25;;;;;;;7.18;3.72;;;;;;;17.97;97.59;100664.47;5028383;28;20036;-61
2022/06/08 06:28:51;;;;;;;6.85;3.70;;;;;;;18.10;96.71;100657.13;5014404;28;20033;-61
2022/06/08 06:31:20;;;;;;;6.88;3.38;;;;;;;18.15;95.76;100660.31;5031436;28;20104;-61
2022/06/08 06:33:46;;;;;;;7.43;3.17;;;;;;;18.06;95.14;100654.84;5032102;28;20614;-62
2022/06/08 06:36:12;;;;;;;6.88;3.10;;;;;;;17.96;95.95;100663.59;5027295;28;20108;-62
2022/06/08 06:38:37;;;;;;;5.50;2.92;;;;;;;17.78;97.09;100665.84;5023898;28;20413;-62
2022/06/08 06:41:02;;;;;;;6.68;3.15;;;;;;;17.65;97.83;100674.00;5031181;28;20092;-62
2022/06/08 06:43:28;;;;;;;8.57;3.47;;;;;;;17.60;98.18;100668.16;5024973;28;20045;-62
2022/06/08 06:45:53;;;;;;;6.00;3.38;;;;;;;17.66;97.92;100670.34;5004704;28;20043;-61
2022/06/08 06:48:18;;;;;;;7.43;3.55;;;;;;;17.75;98.96;100668.78;5028066;28;20029;-61
2022/06/08 06:50:44;;;;;;;6.13;3.80;;;;;;;17.84;97.21;100668.06;5020576;28;20037;-62
2022/06/08 06:53:12;;;;;;;6.40;3.88;;;;;;;17.99;97.42;100660.69;5024811;28;20116;-62
2022/06/08 06:55:38;;;;;;;7.72;4.40;;;;;;;18.13;96.38;100662.28;5029430;28;20029;-61
2022/06/08 06:58:06;;;;;;;8.30;4.28;;;;;;;18.29;96.17;100669.09;5030497;28;20034;-62
2022/06/08 07:00:33;;;;;;;10.10;4.57;;;;;;;18.49;93.76;100660.28;5030557;28;20017;-61
2022/06/08 07:02:59;;;;;;;10.55;4.90;;;;;;;18.63;94.45;100648.44;5030582;28;20124;-62
2022/06/08 07:05:29;;;;;;;9.63;5.20;;;;;;;18.75;93.38;100657.28;5029076;28;20531;-60
2022/06/08 07:07:54;;;;;;;7.63;4.82;;;;;;;18.88;93.52;100654.44;5030853;28;20037;-59
2022/06/08 07:10:20;;;;;;;10.20;4.97;;;;;;;18.99;93.20;100648.22;5030826;28;20032;-61
2022/06/08 07:12:46;;;;;;;7.97;4.95;;;;;;;19.07;92.08;100640.38;5031235;28;20025;-61
2022/06/08 07:15:14;;;;;;;10.85;5.15;;;;;;;19.12;92.11;100646.19;5025013;28;20385;-61
2022/06/08 07:17:39;;;;;;;8.90;4.78;;;;;;;19.12;91.88;100642.69;5024481;28;20028;-61
2022/06/08 07:20:05;;;;;;;8.77;5.20;;;;;;;19.06;92.25;100641.34;5027037;28;20034;-62
2022/06/08 07:22:31;;;;;;;8.15;4.80;;;;;;;18.94;91.48;100634.31;5016817;28;20033;-60
2022/06/08 07:24:56;;;;;;;7.65;4.20;;;;;;;18.87;90.96;100636.63;5035037;28;20385;-61
2022/06/08 07:27:22;;;;;;;7.55;4.85;;;;;;;18.93;91.26;100629.97;5033967;28;20131;-61
2022/06/08 07:29:49;;;;;;;7.97;4.60;;;;;;;19.03;92.06;100624.66;5034563;28;20056;-61
2022/06/08 07:32:14;;;;;;;5.88;4.00;;;;;;;19.22;90.69;100619.44;5033445;28;20056;-61
2022/06/08 07:34:39;;;;;;;7.13;4.30;;;;;;;19.37;90.82;100622.63;5033426;28;20033;-61
2022/06/08 07:37:05;;;;;;;6.85;4.45;;;;;;;19.31;90.51;100617.81;5034296;28;20083;-61
2022/06/08 07:39:30;;;;;;;7.82;4.82;;;;;;;19.43;90.97;100611.38;5034614;28;20120;-62
2022/06/08 07:41:56;;;;;;;7.63;4.78;;;;;;;19.59;91.15;100616.28;5034500;28;20017;-60
2022/06/08 07:44:21;;;;;;;10.43;5.47;;;;;;;19.63;90.93;100609.66;5034394;28;20040;-61
2022/06/08 07:46:47;;;;;;;10.65;5.38;;;;;;;19.58;91.44;100616.41;5033169;28;20084;-62
2022/06/08 07:51:59;;;;;;;10.57;5.57;;;;;;;19.36;91.28;100617.41;5024709;28;20096;-61
2022/06/08 07:54:27;;;;;;;9.25;5.30;;;;;;;19.29;91.42;100617.09;5027486;28;20476;-62
2022/06/08 07:56:53;;;;;;;8.63;4.97;;;;;;;19.22;90.49;100618.56;5033621;28;20087;-62
2022/06/08 07:59:22;;;;;;;8.15;4.88;;;;;;;19.18;90.55;100622.50;5030568;28;20017;-62
2022/06/08 08:01:47;;;;;;;10.30;5.78;;;;;;;19.19;90.76;100618.84;5027355;28;20071;-62
2022/06/08 08:04:13;;;;;;;8.65;4.93;;;;;;;19.24;91.91;100627.38;5019978;28;20017;-61
2022/06/08 08:06:38;;;;;;;9.50;5.03;;;;;;;19.36;91.62;100626.31;5020143;28;20049;-61
2022/06/08 08:09:04;;;;;;;9.05;5.68;;;;;;;19.56;90.76;100624.59;5024032;28;20582;-61
2022/06/08 08:11:29;;;;;;;10.43;5.70;;;;;;;19.76;90.70;100622.88;5032682;28;20037;-61
2022/06/08 08:13:54;;;;;;;11.40;5.90;;;;;;;20.09;89.20;100620.91;5023453;28;20034;-62
2022/06/08 08:16:20;;;;;;;13.10;7.13;;;;;;;20.43;88.86;100617.03;5029353;28;20041;-61
2022/06/08 08:18:45;;;;;;;9.93;6.80;;;;;;;20.94;85.90;100607.06;5014485;28;20037;-61
2022/06/08 08:21:10;;;;;;;10.63;6.55;;;;;;;21.30;82.64;100620.75;5030986;28;20029;-62
2022/06/08 08:23:36;;;;;;;9.27;6.20;;;;;;;21.23;81.62;100617.81;5016171;28;20032;-62
2022/06/08 08:26:02;;;;;;;11.93;6.00;;;;;;;21.18;80.90;100620.09;5033515;28;20017;-61
2022/06/08 08:28:28;;;;;;;8.70;5.70;;;;;;;21.06;81.72;100614.00;5033374;28;20030;-61
2022/06/08 08:30:53;;;;;;;9.68;5.53;;;;;;;20.99;83.13;100606.66;5031216;28;20447;-62
2022/06/08 08:33:19;;;;;;;11.23;6.50;;;;;;;20.88;83.53;100607.63;5026512;28;20034;-62
2022/06/08 08:35:45;;;;;;;8.02;6.00;;;;;;;20.68;84.86;100610.28;5033423;28;20029;-61
2022/06/08 08:38:10;;;;;;;11.23;6.65;;;;;;;20.71;84.24;100607.34;5030833;28;20072;-61
2022/06/08 08:40:44;;;;;;;10.07;6.18;;;;;;;20.67;85.65;100602.34;5033644;28;20056;-62
2022/06/08 08:43:13;;;;;;;11.82;6.88;;;;;;;20.93;85.09;100594.59;5032708;28;20034;-62
2022/06/08 08:46:09;;;;;;;10.15;6.00;;;;;;;21.03;84.98;100608.88;5031912;28;20485;-63
2022/06/08 08:49:21;;;;;;;10.00;5.72;;;;;;;20.95;83.60;100600.69;5033126;28;20032;-62
2022/06/08 08:52:01;;;;;;;8.60;5.50;;;;;;;20.75;84.82;100606.06;5014592;28;20033;-62
2022/06/08 08:54:34;;;;;;;8.07;5.70;;;;;;;20.66;84.67;100603.34;5022916;28;20022;-62
2022/06/08 08:57:11;;;;;;;10.57;6.22;;;;;;;20.28;85.81;100605.81;5028757;28;20052;-61
2022/06/08 08:59:41;;;;;;;8.48;6.15;;;;;;;19.83;88.08;100612.47;5032722;28;20022;-62
2022/06/08 09:02:15;;;;;;;9.55;5.93;;;;;;;19.59;89.57;100599.28;5032558;28;20059;-62
2022/06/08 09:04:47;;;;;;;11.77;6.28;;;;;;;19.53;90.33;100608.75;5027980;28;20041;-62
2022/06/08 09:07:16;;;;;;;13.30;7.03;;;;;;;19.41;91.76;100613.34;5032495;28;20119;-62
2022/06/08 09:09:43;;;;;;;11.07;5.63;;;;;;;19.20;93.65;100612.50;5027053;28;20033;-62
2022/06/08 09:12:14;;;;;;;8.63;5.20;;;;;;;19.04;95.33;100608.44;5024755;28;20036;-61
2022/06/08 09:14:58;;;;;;;9.23;5.32;;;;;;;18.63;99.70;100608.19;5032202;28;20384;-62
2022/06/08 09:17:34;;;;;;;13.95;5.78;;;;;;;18.47;100.00;100613.97;5033023;28;20112;-62
2022/06/08 09:20:03;;;;;;;14.18;7.55;;;;;;;18.23;100.00;100608.75;5031457;28;20026;-62
2022/06/08 09:22:31;;;;;;;9.30;5.30;;;;;;;18.03;100.00;100605.03;5032188;28;20052;-61
2022/06/08 09:25:22;;;;;;;9.75;4.60;;;;;;;17.87;100.00;100617.91;5032378;28;20026;-61
2022/06/08 09:27:50;;;;;;;9.38;4.40;;;;;;;17.61;100.00;100629.69;5023859;28;20033;-61
2022/06/08 09:30:23;;;;;;;9.57;4.88;;;;;;;17.27;100.00;100623.44;5030135;28;20094;-61
2022/06/08 09:32:53;;;;;;;12.65;6.47;;;;;;;17.09;100.00;100614.97;5032425;28;20022;-63
2022/06/08 09:35:48;;;;;;;19.63;9.13;;;;;;;16.89;100.00;100617.28;5032280;28;20052;-62
2022/06/08 09:38:21;;;;;;;12.15;5.82;;;;;;;16.67;100.00;100624.22;5031115;28;20041;-63
2022/06/08 09:41:16;;;;;;;13.05;6.53;;;;;;;16.59;100.00;100623.13;5030930;28;20026;-64
2022/06/08 09:44:03;;;;;;;9.82;5.75;;;;;;;16.45;100.00;100622.31;4992024;28;20046;-64
2022/06/08 09:52:56;;;;;;;11.88;5.10;;;;;;;16.36;100.00;100614.97;5025193;28;20059;-64
2022/06/08 09:55:50;;;;;;;10.40;5.80;;;;;;;16.36;100.00;100613.13;5026211;28;20025;-64
2022/06/08 09:58:34;;;;;;;10.68;5.22;;;;;;;16.34;100.00;100615.06;4981365;28;20213;-65
2022/06/08 10:01:05;;;;;;;9.85;5.80;;;;;;;16.30;100.00;100618.06;5032160;28;20030;-63
2022/06/08 10:04:10;;;;;;;13.43;5.65;;;;;;;16.19;100.00;100626.88;5031283;28;20112;-64
2022/06/08 10:06:44;;;;;;;12.88;5.00;;;;;;;16.05;100.00;100630.53;5025575;28;20060;-63
2022/06/08 10:09:34;;;;;;;11.00;3.90;;;;;;;15.87;100.00;100628.19;5025931;28;20024;-64
2022/06/08 10:12:22;;;;;;;8.85;3.60;;;;;;;15.84;100.00;100624.88;5030177;28;20037;-65
2022/06/08 10:14:55;;;;;;;10.88;4.00;;;;;;;15.76;100.00;100632.56;5018964;28;20060;-62
2022/06/08 10:17:30;;;;;;;11.25;3.80;;;;;;;15.65;100.00;100627.97;5030964;28;20033;-63
2022/06/08 10:19:58;;;;;;;12.10;4.15;;;;;;;15.62;100.00;100631.69;5024275;28;20401;-64
2022/06/08 10:22:30;;;;;;;7.53;3.20;;;;;;;15.56;100.00;100624.97;5027697;28;20021;-64
2022/06/08 10:25:04;;;;;;;8.57;3.67;;;;;;;15.70;100.00;100628.50;5014928;28;20097;-64
2022/06/08 10:27:41;;;;;;;15.38;3.30;;;;;;;15.71;100.00;100633.72;5030994;28;20071;-64
2022/06/08 10:30:19;;;;;;;10.10;3.67;;;;;;;15.73;100.00;100629.13;5031202;28;20022;-64
2022/06/08 10:32:52;;;;;;;9.20;3.33;;;;;;;15.85;100.00;100638.13;5030107;28;20477;-65
2022/06/08 10:35:44;;;;;;;7.63;3.10;;;;;;;15.70;100.00;100636.50;5029740;28;20025;-65
2022/06/08 10:38:27;;;;;;;8.70;3.10;;;;;;;15.48;100.00;100637.97;5030405;28;20090;-65
2022/06/08 10:41:00;;;;;;;9.48;3.05;;;;;;;15.31;100.00;100640.97;5031796;28;20045;-65
2022/06/08 10:43:34;;;;;;;11.00;3.00;;;;;;;15.21;100.00;100646.06;5029941;28;20025;-67
2022/06/08 10:46:04;;;;;;;8.05;2.95;;;;;;;15.11;100.00;100634.31;5025566;28;20022;-66
2022/06/08 10:48:35;;;;;;;8.50;3.20;;;;;;;15.01;100.00;100640.28;5029671;28;20070;-66
2022/06/08 10:51:06;;;;;;;11.02;3.78;;;;;;;15.06;100.00;100642.59;5019466;28;20417;-66
2022/06/08 10:56:34;;;;;;;7.30;3.38;;;;;;;15.05;100.00;100638.22;5030302;28;20427;-66
2022/06/08 10:59:08;;;;;;;8.50;3.30;;;;;;;15.06;100.00;100626.59;5022445;28;20029;-66
2022/06/08 11:02:16;;;;;;;7.07;3.10;;;;;;;15.04;100.00;100631.22;5030848;28;20026;-66
2022/06/08 11:05:11;;;;;;;8.93;3.17;;;;;;;15.09;100.00;100637.09;5029954;28;20040;-65
2022/06/08 11:08:06;;;;;;;8.40;3.58;;;;;;;15.14;100.00;100632.28;5029192;28;20046;-64
2022/06/08 11:10:51;;;;;;;11.32;3.70;;;;;;;15.20;100.00;100645.19;5028748;28;20072;-65
2022/06/08 11:13:25;;;;;;;7.05;3.47;;;;;;;15.14;100.00;100636.75;5029339;28;20406;-63
2022/06/08 11:16:06;;;;;;;7.10;3.15;;;;;;;15.13;100.00;100632.38;5031630;28;20056;-64
2022/06/08 11:18:53;;;;;;;11.53;3.53;;;;;;;15.07;100.00;100629.16;5031199;28;20053;-63
2022/06/08 11:21:21;;;;;;;7.75;3.10;;;;;;;14.99;100.00;100628.84;5030567;28;20296;-64
2022/06/08 11:23:54;;;;;;;6.25;3.03;;;;;;;14.90;100.00;100624.97;5030512;28;20033;-64
2022/06/08 11:26:25;;;;;;;9.77;3.33;;;;;;;14.86;100.00;100622.59;5029722;28;20033;-65
2022/06/08 11:29:21;;;;;;;9.77;3.42;;;;;;;14.85;100.00;100620.91;5029320;28;20087;-65
2022/06/08 11:31:53;;;;;;;7.85;2.85;;;;;;;14.78;100.00;100615.13;5030905;28;20037;-65
2022/06/08 11:34:18;;;;;;;6.15;2.78;;;;;;;14.81;100.00;100606.94;5015296;28;20032;-64
2022/06/08 11:37:25;;;;;;;10.13;3.40;;;;;;;14.90;100.00;100611.63;5030373;28;20021;-65
2022/06/08 11:40:29;;;;;;;9.43;3.60;;;;;;;14.89;100.00;100606.41;5031098;28;20025;-65
2022/06/08 11:43:34;;;;;;;7.00;3.03;;;;;;;15.00;100.00;100601.22;5030233;28;20507;-65
2022/06/08 11:46:01;;;;;;;11.25;3.40;;;;;;;14.99;100.00;100602.19;5025803;28;20037;-65
2022/06/08 11:48:45;;;;;;;6.63;3.40;;;;;;;15.01;100.00;100608.28;5029009;28;20052;-65
2022/06/08 11:51:27;;;;;;;6.75;3.38;;;;;;;15.00;100.00;100590.56;5030450;28;20032;-65
2022/06/08 11:53:52;;;;;;;7.63;3.75;;;;;;;14.97;100.00;100603.22;5030620;28;20032;-64
2022/06/08 11:56:29;;;;;;;5.70;2.58;;;;;;;14.86;100.00;100594.16;5030451;28;20471;-65